Terminal Aerodrome Forecast
Issued by NWS

Home | Current Version | Previous Version | Graphics & Text | Print | Product List | Glossary On
Versions: 1 2 3 4 5 6 7 8 9 10 11 12 13 14 15 16 17 18 19 20 21 22 23 24 25 26
000
FTUS43 KABR 231700
TAFATY
TAF
KATY 231726Z 2318/2418 35017G23KT P6SM OVC006
      TEMPO 2321/2324 3SM -SN
     FM240000 34019G25KT P6SM OVC010=

USA.gov is the U.S. government's official web portal to all federal, state and local government web resources and services.